createdAt,value
2019-04-14T00:07:06.295Z,43.47
2019-04-14T00:09:36.067Z,46.10
2019-04-14T00:12:07.426Z,46.97
2019-04-14T00:14:35.790Z,45.70
2019-04-14T00:17:04.661Z,48.10
2019-04-14T00:24:03.083Z,47.00
2019-04-14T00:26:35.523Z,44.10
2019-04-14T00:32:55.162Z,44.83
2019-04-14T00:35:34.548Z,43.00
2019-04-14T00:38:34.492Z,46.13
2019-04-14T00:41:11.989Z,44.53
2019-04-14T00:44:10.010Z,46.50
2019-04-14T00:46:45.728Z,42.07
2019-04-14T00:49:14.190Z,45.60
2019-04-14T00:55:57.960Z,45.00
2019-04-14T00:58:27.861Z,46.00
2019-04-14T01:01:04.843Z,52.77
2019-04-14T01:03:35.179Z,48.73
2019-04-14T01:06:12.122Z,45.87
2019-04-14T01:08:42.441Z,48.07
2019-04-14T01:11:15.990Z,50.67
2019-04-14T01:14:23.314Z,50.33
2019-04-14T01:16:53.818Z,48.60
2019-04-14T01:19:22.714Z,50.53
2019-04-14T01:22:00.945Z,51.00
2019-04-14T01:24:29.618Z,49.43
2019-04-14T01:26:59.453Z,51.03
2019-04-14T01:29:28.056Z,48.73
2019-04-14T01:31:56.523Z,46.37
2019-04-14T01:34:26.015Z,48.07
2019-04-14T01:36:54.685Z,49.67
2019-04-14T01:39:24.222Z,52.70
2019-04-14T01:41:54.207Z,46.53
2019-04-14T01:44:24.147Z,48.80
2019-04-14T01:46:54.149Z,46.93
2019-04-14T01:49:23.062Z,50.50
2019-04-14T01:52:08.453Z,51.33
2019-04-14T01:54:45.293Z,51.00
2019-04-14T01:57:22.068Z,47.67
2019-04-14T01:59:50.637Z,48.73
2019-04-14T02:02:27.021Z,47.90
2019-04-14T02:04:55.616Z,48.87
2019-04-14T02:07:25.433Z,46.33
2019-04-14T02:09:55.260Z,48.23
2019-04-14T02:12:23.897Z,51.37
2019-04-14T02:14:52.355Z,48.63
2019-04-14T02:17:21.935Z,53.13
2019-04-14T02:19:50.568Z,50.67
2019-04-14T02:22:20.189Z,51.33
2019-04-14T02:24:48.785Z,50.60
2019-04-14T02:27:17.241Z,47.67
2019-04-14T02:29:45.738Z,49.90
2019-04-14T02:32:45.302Z,48.87
2019-04-14T02:35:13.627Z,53.53
2019-04-14T02:37:49.129Z,51.37
2019-04-14T02:42:39.542Z,50.47
2019-04-14T02:45:19.401Z,47.03
2019-04-14T02:47:56.834Z,49.03
2019-04-14T02:52:47.258Z,47.53
2019-04-14T02:55:10.900Z,49.07
2019-04-14T02:57:37.873Z,45.80
2019-04-14T03:00:16.571Z,48.47
2019-04-14T03:05:13.334Z,47.60
2019-04-14T03:10:22.321Z,48.53
2019-04-14T03:15:17.000Z,48.53
2019-04-14T03:17:58.286Z,47.17
2019-04-14T03:20:35.614Z,47.80
2019-04-14T03:23:21.227Z,50.90
2019-04-14T03:25:37.499Z,49.17
2019-04-14T03:31:25.414Z,46.37
2019-04-14T03:36:25.416Z,49.33
2019-04-14T03:43:33.827Z,48.27
2019-04-14T03:45:59.208Z,49.87
2019-04-14T03:51:02.105Z,49.80
2019-04-14T03:53:42.789Z,50.60
2019-04-14T03:55:55.335Z,48.53
2019-04-14T03:58:21.092Z,50.97
2019-04-14T04:00:49.627Z,50.27
2019-04-14T04:03:18.165Z,49.90
2019-04-14T04:05:47.760Z,48.00
2019-04-14T04:08:16.462Z,52.93
2019-04-14T04:10:49.313Z,43.93
2019-04-14T04:13:17.770Z,47.87
2019-04-14T04:15:47.558Z,52.10
2019-04-14T04:18:17.856Z,47.43
2019-04-14T04:21:05.262Z,48.90
2019-04-14T04:23:53.214Z,47.27
2019-04-14T04:26:32.270Z,47.63
2019-04-14T04:29:02.731Z,51.03
2019-04-14T04:31:39.571Z,49.37
2019-04-14T04:34:09.933Z,49.47
2019-04-14T04:36:57.500Z,48.23
2019-04-14T04:39:27.994Z,51.07
2019-04-14T04:41:57.917Z,50.13
2019-04-14T04:44:27.018Z,50.67
2019-04-14T04:46:55.566Z,46.80
2019-04-14T04:49:26.498Z,54.60
2019-04-14T04:51:55.128Z,50.17
2019-04-14T04:54:23.653Z,47.80
2019-04-14T04:56:52.139Z,49.57
2019-04-14T04:59:21.276Z,47.10
2019-04-14T05:01:49.876Z,44.30
2019-04-14T05:04:18.339Z,47.90
2019-04-14T05:07:01.550Z,47.37
2019-04-14T05:09:38.851Z,48.60
2019-04-14T05:12:15.734Z,46.63
2019-04-14T05:14:45.911Z,47.33
2019-04-14T05:17:16.989Z,47.67
2019-04-14T05:19:45.596Z,48.13
2019-04-14T05:22:17.106Z,50.00
2019-04-14T05:24:44.635Z,49.10
2019-04-14T05:27:13.119Z,45.97
2019-04-14T05:29:42.934Z,52.13
2019-04-14T05:32:11.595Z,49.90
2019-04-14T05:34:41.137Z,46.50
2019-04-14T05:37:09.825Z,51.70
2019-04-14T05:39:38.311Z,46.93
2019-04-14T05:42:13.223Z,46.53
2019-04-14T05:44:38.170Z,46.03
2019-04-14T05:47:06.705Z,50.53
2019-04-14T05:49:41.118Z,45.83
2019-04-14T05:52:05.575Z,49.87
2019-04-14T05:54:34.215Z,46.53
2019-04-14T05:57:02.746Z,45.07
2019-04-14T05:59:31.207Z,48.73
2019-04-14T06:01:59.987Z,44.57
2019-04-14T06:04:28.609Z,44.40
2019-04-14T06:06:57.101Z,40.67
2019-04-14T06:09:25.590Z,41.40
2019-04-14T06:11:54.379Z,43.90
2019-04-14T06:14:22.851Z,43.63
2019-04-14T06:16:51.612Z,43.10
2019-04-14T06:19:20.385Z,47.73
2019-04-14T06:21:48.861Z,43.67
2019-04-14T06:24:17.353Z,44.50
2019-04-14T06:26:45.796Z,41.60
2019-04-14T06:29:14.266Z,41.70
2019-04-14T06:31:44.371Z,43.03
2019-04-14T06:34:17.193Z,42.67
2019-04-14T06:36:47.285Z,41.80
2019-04-14T06:39:17.420Z,40.23
2019-04-14T06:41:45.914Z,46.27
2019-04-14T06:44:14.466Z,44.90
2019-04-14T06:46:42.959Z,42.23
2019-04-14T06:49:11.405Z,42.73
2019-04-14T06:51:40.063Z,40.73
2019-04-14T06:54:08.526Z,42.47
2019-04-14T06:56:36.967Z,42.50
2019-04-14T06:59:05.518Z,40.60
2019-04-14T07:01:33.978Z,42.53
2019-04-14T07:04:02.462Z,40.80
2019-04-14T07:06:31.265Z,38.47
2019-04-14T07:08:59.727Z,42.70
2019-04-14T07:11:28.198Z,41.50
2019-04-14T07:13:56.655Z,42.03
2019-04-14T07:16:25.513Z,40.73
2019-04-14T07:18:54.006Z,45.30
2019-04-14T07:21:22.474Z,40.83
2019-04-14T07:26:33.131Z,37.50
2019-04-14T07:29:01.620Z,39.60
2019-04-14T07:31:37.612Z,43.27
2019-04-14T07:34:24.179Z,41.10
2019-04-14T07:36:54.302Z,42.07
2019-04-14T07:39:24.458Z,42.53
2019-04-14T07:42:06.773Z,40.93
2019-04-14T07:45:06.910Z,39.73
2019-04-14T07:47:51.743Z,42.60
2019-04-14T07:50:42.020Z,42.67
2019-04-14T07:53:40.522Z,40.97
2019-04-14T07:56:10.993Z,41.63
2019-04-14T07:58:53.418Z,41.90
2019-04-14T08:01:35.499Z,43.40
2019-04-14T08:04:23.543Z,41.33
2019-04-14T08:06:53.608Z,41.00
2019-04-14T08:09:46.623Z,45.30
2019-04-14T08:12:15.214Z,41.17
2019-04-14T08:14:46.636Z,42.00
2019-04-14T08:17:28.948Z,44.60
2019-04-14T08:20:01.302Z,43.23
2019-04-14T08:22:29.797Z,45.83
2019-04-14T08:25:02.648Z,46.87
2019-04-14T08:27:35.068Z,49.23
2019-04-14T08:30:05.011Z,45.13
2019-04-14T08:32:34.737Z,47.57
2019-04-14T08:35:11.997Z,40.30
2019-04-14T08:37:40.459Z,44.97
2019-04-14T08:40:09.494Z,43.67
2019-04-14T08:42:57.730Z,44.20
2019-04-14T08:45:44.698Z,46.07
2019-04-14T08:48:17.674Z,41.03
2019-04-14T08:50:52.499Z,43.60
2019-04-14T08:53:40.136Z,46.77
2019-04-14T08:59:21.225Z,42.87
2019-04-14T09:01:57.187Z,44.27
2019-04-14T09:04:44.857Z,44.00
2019-04-14T09:07:26.829Z,43.07
2019-04-14T09:10:08.828Z,40.80
2019-04-14T09:12:38.940Z,38.93
2019-04-14T09:15:07.977Z,37.87
2019-04-14T09:17:36.802Z,43.13
2019-04-14T09:20:06.677Z,40.90
2019-04-14T09:22:35.133Z,38.03
2019-04-14T09:25:04.390Z,38.87
2019-04-14T09:27:33.982Z,40.23
2019-04-14T09:30:02.598Z,39.53
2019-04-14T09:32:31.354Z,40.93
2019-04-14T09:35:01.059Z,37.73
2019-04-14T09:37:32.433Z,41.10
2019-04-14T09:40:01.219Z,42.40
2019-04-14T09:42:29.984Z,39.30
2019-04-14T09:44:59.573Z,39.47
2019-04-14T09:47:28.141Z,39.00
2019-04-14T09:49:56.961Z,38.70
2019-04-14T09:52:25.853Z,41.33
2019-04-14T09:54:55.520Z,39.60
2019-04-14T09:57:25.476Z,39.10
2019-04-14T09:59:59.422Z,39.27
2019-04-14T10:02:27.965Z,37.83
2019-04-14T10:04:59.665Z,41.50
2019-04-14T10:07:28.249Z,38.40
2019-04-14T10:10:01.081Z,40.50
2019-04-14T10:12:29.654Z,39.20
2019-04-14T10:14:58.183Z,39.60
2019-04-14T10:17:30.137Z,46.83
2019-04-14T10:19:58.649Z,44.10
2019-04-14T10:22:33.911Z,40.80
2019-04-14T10:24:57.379Z,40.20
2019-04-14T10:27:28.986Z,41.23
2019-04-14T10:29:57.749Z,43.80
2019-04-14T10:32:29.764Z,40.43
2019-04-14T10:35:02.136Z,38.60
2019-04-14T10:38:08.035Z,39.93
2019-04-14T10:40:39.181Z,37.63
2019-04-14T10:43:08.710Z,38.57
2019-04-14T10:45:38.223Z,43.87
2019-04-14T10:48:06.769Z,42.07
2019-04-14T10:50:35.296Z,39.23
2019-04-14T10:53:03.869Z,40.43
2019-04-14T10:55:35.173Z,39.87
2019-04-14T10:58:04.050Z,38.40
2019-04-14T11:00:35.441Z,44.23
2019-04-14T11:03:04.387Z,39.33
2019-04-14T11:05:41.364Z,38.63
2019-04-14T11:08:09.852Z,37.90
2019-04-14T11:10:39.419Z,41.23
2019-04-14T11:13:08.223Z,37.77
2019-04-14T11:15:40.852Z,37.37
2019-04-14T11:18:12.234Z,36.67
2019-04-14T11:20:45.825Z,39.00
2019-04-14T11:23:38.805Z,36.60
2019-04-14T11:26:12.444Z,40.73
2019-04-14T11:28:41.191Z,37.30
2019-04-14T11:31:10.288Z,40.87
2019-04-14T11:33:41.591Z,38.60
2019-04-14T11:36:35.305Z,41.07
2019-04-14T11:39:07.129Z,37.27
2019-04-14T11:41:37.161Z,35.57
2019-04-14T11:44:06.483Z,37.50
2019-04-14T11:46:41.506Z,35.67
2019-04-14T11:49:09.987Z,35.00
2019-04-14T11:51:41.584Z,38.60
2019-04-14T11:54:10.123Z,39.43
2019-04-14T11:56:38.736Z,37.63
2019-04-14T11:59:08.467Z,40.77
2019-04-14T12:01:38.617Z,37.47
2019-04-14T12:04:19.829Z,35.87
2019-04-14T12:06:50.109Z,34.80
2019-04-14T12:09:43.640Z,33.37
2019-04-14T12:12:19.722Z,38.10
2019-04-14T12:14:48.192Z,36.33
2019-04-14T12:17:17.752Z,36.87
2019-04-14T12:19:46.239Z,40.20
2019-04-14T12:22:14.754Z,34.63
2019-04-14T12:24:44.785Z,36.33
2019-04-14T12:27:13.267Z,31.17
2019-04-14T12:29:41.777Z,32.53
2019-04-14T12:32:12.752Z,33.03
2019-04-14T12:34:41.368Z,33.40
2019-04-14T12:37:10.898Z,32.77
2019-04-14T12:39:40.687Z,32.37
2019-04-14T12:42:19.696Z,29.10
2019-04-14T12:45:09.138Z,30.47
2019-04-14T12:47:41.974Z,31.93
2019-04-14T12:50:17.430Z,30.03
2019-04-14T12:52:45.921Z,30.60
2019-04-14T12:55:15.788Z,30.33
2019-04-14T12:57:52.299Z,27.93
2019-04-14T13:00:22.574Z,27.53
2019-04-14T13:02:53.694Z,28.73
2019-04-14T13:05:23.309Z,29.17
2019-04-14T13:07:52.835Z,27.50
2019-04-14T13:10:21.312Z,24.30
2019-04-14T13:12:49.799Z,25.73
2019-04-14T13:15:18.360Z,28.00
2019-04-14T13:17:46.876Z,26.30
2019-04-14T13:20:16.801Z,27.97
2019-04-14T13:22:46.272Z,27.63
2019-04-14T13:25:14.900Z,27.97
2019-04-14T13:27:43.399Z,25.90
2019-04-14T13:30:14.171Z,26.60
2019-04-14T13:32:42.631Z,25.07
2019-04-14T13:35:11.195Z,24.80
2019-04-14T13:37:39.645Z,22.90
2019-04-14T13:40:08.652Z,24.20
2019-04-14T13:42:37.130Z,23.40
2019-04-14T13:45:06.739Z,22.33
2019-04-14T13:47:35.258Z,21.50
2019-04-14T13:50:06.264Z,21.73
2019-04-14T13:52:46.052Z,18.97
2019-04-14T13:55:06.713Z,21.23
2019-04-14T13:57:35.190Z,24.67
2019-04-14T14:00:06.332Z,22.13
2019-04-14T14:02:34.826Z,20.33
2019-04-14T14:05:03.351Z,18.67
2019-04-14T14:07:31.831Z,20.27
2019-04-14T14:10:00.286Z,20.83
2019-04-14T14:12:46.962Z,20.77
2019-04-14T14:15:33.596Z,22.07
2019-04-14T14:18:20.004Z,23.30
2019-04-14T14:20:50.127Z,23.53
2019-04-14T14:23:20.251Z,25.87
2019-04-14T14:25:52.921Z,25.47
2019-04-14T14:28:21.395Z,23.10
2019-04-14T14:30:50.203Z,24.63
2019-04-14T14:33:18.667Z,24.03
2019-04-14T14:35:47.457Z,24.63
2019-04-14T14:38:15.949Z,26.43
2019-04-14T14:40:44.440Z,26.70
2019-04-14T14:43:12.904Z,24.50
2019-04-14T14:45:45.978Z,24.20
2019-04-14T14:48:19.095Z,26.20
2019-04-14T14:50:54.779Z,23.20
2019-04-14T14:53:23.259Z,23.40
2019-04-14T14:55:52.043Z,24.20
2019-04-14T14:58:20.505Z,23.67
2019-04-14T15:00:49.284Z,23.00
2019-04-14T15:03:17.847Z,22.90
2019-04-14T15:05:46.629Z,23.77
2019-04-14T15:08:15.194Z,24.73
2019-04-14T15:10:43.659Z,23.53
2019-04-14T15:13:12.110Z,23.60
2019-04-14T15:15:40.558Z,26.23
2019-04-14T15:18:09.117Z,23.87
2019-04-14T15:20:37.638Z,23.07
2019-04-14T15:23:06.168Z,22.93
2019-04-14T15:25:34.740Z,25.73
2019-04-14T15:28:03.217Z,24.80
2019-04-14T15:30:32.029Z,26.20
2019-04-14T15:33:00.869Z,24.07
2019-04-14T15:35:29.353Z,26.17
2019-04-14T15:37:58.146Z,25.37
2019-04-14T15:40:26.964Z,28.17
2019-04-14T15:42:55.503Z,24.03
2019-04-14T15:45:23.976Z,26.67
2019-04-14T15:47:52.794Z,25.77
2019-04-14T15:50:21.258Z,25.60
2019-04-14T15:52:49.725Z,24.27
2019-04-14T15:55:18.857Z,26.23
2019-04-14T15:57:58.223Z,24.00
2019-04-14T16:00:43.581Z,24.93
2019-04-14T16:03:25.349Z,25.10
2019-04-14T16:06:11.624Z,26.30
2019-04-14T16:08:41.755Z,24.50
2019-04-14T16:11:27.912Z,23.70
2019-04-14T16:14:14.487Z,23.87
2019-04-14T16:17:00.814Z,26.57
2019-04-14T16:19:33.869Z,26.57
2019-04-14T16:22:02.369Z,25.13
2019-04-14T16:24:30.841Z,27.30
2019-04-14T16:27:16.825Z,24.60
2019-04-14T16:29:46.962Z,24.90
2019-04-14T16:32:33.184Z,26.07
2019-04-14T16:35:03.307Z,25.47
2019-04-14T16:37:31.771Z,24.60
2019-04-14T16:40:00.259Z,22.57
2019-04-14T16:42:28.734Z,24.37
2019-04-14T16:44:57.194Z,24.60
2019-04-14T16:47:25.675Z,26.63
2019-04-14T16:49:54.573Z,21.83
2019-04-14T16:52:30.693Z,22.67
2019-04-14T16:55:12.623Z,22.30
2019-04-14T16:57:58.883Z,24.37
2019-04-14T17:00:29.011Z,23.17
2019-04-14T17:02:57.741Z,25.40
2019-04-14T17:05:26.185Z,22.50
2019-04-14T17:07:54.657Z,22.77
2019-04-14T17:10:23.794Z,22.37
2019-04-14T17:12:52.274Z,24.13
2019-04-14T17:15:34.364Z,24.00
2019-04-14T17:18:20.674Z,20.27
2019-04-14T17:21:05.744Z,22.30
2019-04-14T17:23:35.878Z,23.03
2019-04-14T17:26:24.462Z,23.33
2019-04-14T17:29:09.433Z,21.87
2019-04-14T17:31:54.384Z,25.20
2019-04-14T17:34:27.269Z,21.17
2019-04-14T17:36:57.361Z,23.40
2019-04-14T17:39:31.823Z,21.80
2019-04-14T17:42:04.725Z,22.67
2019-04-14T17:44:52.891Z,21.13
2019-04-14T17:47:25.710Z,20.70
2019-04-14T17:50:01.379Z,23.23
2019-04-14T17:52:31.525Z,20.53
2019-04-14T17:55:04.865Z,19.50
2019-04-14T17:57:34.971Z,19.47
2019-04-14T18:00:09.237Z,19.30
2019-04-14T18:02:42.449Z,21.93
2019-04-14T18:05:12.832Z,22.27
2019-04-14T18:07:42.977Z,19.30
2019-04-14T18:10:13.147Z,21.13
2019-04-14T18:13:01.295Z,20.03
2019-04-14T18:15:31.831Z,18.90
2019-04-14T18:18:07.858Z,21.53
2019-04-14T18:20:46.817Z,23.40
2019-04-14T18:23:15.330Z,18.70
2019-04-14T18:25:43.793Z,20.47
2019-04-14T18:28:13.907Z,17.83
2019-04-14T18:30:49.869Z,18.23
2019-04-14T18:33:26.087Z,17.37
2019-04-14T18:35:56.212Z,16.93
2019-04-14T18:38:42.434Z,17.40
2019-04-14T18:41:15.621Z,16.13
2019-04-14T18:43:45.719Z,16.23
2019-04-14T18:46:21.721Z,15.97
2019-04-14T18:48:54.798Z,15.47
2019-04-14T18:51:27.403Z,16.40
2019-04-14T18:53:58.435Z,15.30
2019-04-14T18:56:40.650Z,15.37
2019-04-14T18:59:13.574Z,16.03
2019-04-14T19:01:43.661Z,14.43
2019-04-14T19:04:12.423Z,14.37
2019-04-14T19:06:40.909Z,14.53
2019-04-14T19:09:09.795Z,17.03
2019-04-14T19:11:56.290Z,14.23
2019-04-14T19:14:29.327Z,14.77
2019-04-14T19:16:59.740Z,12.70
2019-04-14T19:19:28.377Z,15.03
2019-04-14T19:21:56.853Z,12.77
2019-04-14T19:24:25.307Z,13.67
2019-04-14T19:26:54.093Z,14.77
2019-04-14T19:29:22.572Z,14.90
2019-04-14T19:31:51.113Z,19.70
2019-04-14T19:34:19.602Z,22.60
2019-04-14T19:36:48.054Z,16.73
2019-04-14T19:39:16.698Z,16.63
2019-04-14T19:41:45.503Z,12.93
2019-04-14T19:44:13.980Z,13.30
2019-04-14T19:46:43.783Z,15.23
2019-04-14T19:49:12.274Z,12.93
2019-04-14T19:51:40.750Z,13.07
2019-04-14T19:54:09.347Z,13.50
2019-04-14T19:56:37.831Z,13.10
2019-04-14T19:59:06.277Z,13.23
2019-04-14T20:01:34.791Z,16.20
2019-04-14T20:04:03.238Z,12.87
2019-04-14T20:06:31.727Z,12.83
2019-04-14T20:09:00.182Z,13.30
2019-04-14T20:11:28.740Z,12.33
2019-04-14T20:13:57.181Z,13.80
2019-04-14T20:16:43.677Z,11.50
2019-04-14T20:19:16.562Z,12.63
2019-04-14T20:21:52.504Z,14.07
2019-04-14T20:24:25.369Z,12.90
2019-04-14T20:27:04.611Z,12.93
2019-04-14T20:29:34.714Z,12.27
2019-04-14T20:32:04.850Z,18.27
2019-04-14T20:34:33.348Z,11.20
2019-04-14T20:37:01.807Z,12.70
2019-04-14T20:39:30.445Z,12.07
2019-04-14T20:41:58.968Z,13.87
2019-04-14T20:44:27.569Z,14.83
2019-04-14T20:46:56.311Z,14.23
2019-04-14T20:49:24.855Z,22.83
2019-04-14T20:51:53.329Z,19.97
2019-04-14T20:54:21.817Z,16.47
2019-04-14T20:56:50.348Z,13.73
2019-04-14T20:59:18.818Z,16.00
2019-04-14T21:01:48.954Z,17.70
2019-04-14T21:04:19.212Z,14.80
2019-04-14T21:06:56.203Z,11.80
2019-04-14T21:09:32.319Z,12.27
2019-04-14T21:12:02.439Z,13.27
2019-04-14T21:14:32.538Z,15.73
2019-04-14T21:17:08.430Z,14.30
2019-04-14T21:19:47.381Z,12.83
2019-04-14T21:22:29.815Z,12.37
2019-04-14T21:25:14.902Z,13.33
2019-04-14T21:27:47.917Z,13.83
2019-04-14T21:30:18.191Z,13.23
2019-04-14T21:32:57.198Z,13.00
2019-04-14T21:35:39.157Z,13.37
2019-04-14T21:38:12.200Z,13.93
2019-04-14T21:40:47.817Z,13.70
2019-04-14T21:43:16.261Z,12.63
2019-04-14T21:45:44.739Z,13.57
2019-04-14T21:48:13.271Z,12.23
2019-04-14T21:50:42.015Z,13.83
2019-04-14T21:53:10.547Z,16.13
2019-04-14T21:55:39.079Z,35.63
2019-04-14T21:58:27.222Z,16.00
2019-04-14T22:01:37.811Z,14.37
2019-04-14T22:04:08.351Z,21.13
2019-04-14T22:06:38.759Z,22.70
2019-04-14T22:09:09.204Z,22.30
2019-04-14T22:11:39.427Z,24.37
2019-04-14T22:14:07.950Z,17.80
2019-04-14T22:16:36.482Z,16.07
2019-04-14T22:19:05.042Z,14.53
2019-04-14T22:21:33.815Z,16.07
2019-04-14T22:24:02.449Z,18.73
2019-04-14T22:26:30.948Z,17.53
2019-04-14T22:29:02.304Z,16.27
2019-04-14T22:31:29.622Z,14.33
2019-04-14T22:33:58.096Z,13.87
2019-04-14T22:36:26.584Z,14.90
2019-04-14T22:38:55.045Z,13.53
2019-04-14T22:41:23.508Z,14.07
2019-04-14T22:43:52.045Z,12.53
2019-04-14T22:46:20.593Z,13.47
2019-04-14T22:48:49.148Z,13.70
2019-04-14T22:51:17.620Z,14.47
2019-04-14T22:53:46.078Z,17.90
2019-04-14T22:56:14.626Z,16.30
2019-04-14T22:58:43.087Z,19.47
2019-04-14T23:01:13.482Z,17.87
2019-04-14T23:03:52.496Z,16.93
2019-04-14T23:06:31.429Z,19.30
2019-04-14T23:09:01.561Z,19.37
2019-04-14T23:11:43.441Z,17.13
2019-04-14T23:14:19.291Z,16.67
2019-04-14T23:17:04.285Z,15.87
2019-04-14T23:19:34.378Z,17.03
2019-04-14T23:22:13.597Z,15.60
2019-04-14T23:24:43.801Z,13.77
2019-04-14T23:27:12.255Z,16.13
2019-04-14T23:29:40.726Z,17.80
2019-04-14T23:32:09.199Z,18.70
2019-04-14T23:34:37.677Z,18.60
2019-04-14T23:37:06.135Z,19.17
2019-04-14T23:39:34.678Z,18.13
2019-04-14T23:42:03.223Z,17.37
2019-04-14T23:44:31.694Z,17.07
2019-04-14T23:47:00.168Z,19.10
2019-04-14T23:49:28.627Z,17.53
2019-04-14T23:51:57.175Z,17.87
2019-04-14T23:54:25.735Z,17.90
2019-04-14T23:57:04.866Z,18.57
2019-04-14T23:59:24.717Z,17.60
